Noank, Connecticut
Current Conditions -  °F | °C
As of 12:56 AM on Monday 22 Dec 2014 (Local Time) from KGON Reporting Station
Haze Haze  
Wind Chill: 26°   Ceiling: 5000
Heat Index: 34°   Visibility: 6mi
Dew Point: 32°   Wind: 10mph
Humidity: 92%   Direction: 10°N
Pressure: 30.32"   Gusts: NA
Location:  41.3595°N, 72.0439°W
Report Text: KGON 220556Z AUTO 01009KT 6SM BR OVC050 01/00 A3032 RMK AO2 SLP267 T00110000 10011 20006 56004
Loading
Personal Weather Stations






























Interactive Weather Map New forecast layout! Learn more

10-Day Weather Forecast

Advertisements
Track Severe Weather on mobile